Time;durP1;ratioP1;P1;durP2;ratioP2;P2;SDS_P1;SDS_P2;PMS_P1;PMS_P2;Temp;Humidity;BMP_temperature;BMP_pressure;BME280_temperature;BME280_humidity;BME280_pressure;Samples;Min_cycle;Max_cycle;Signal;HPM_P1;HPM_P2
2021/05/29 00:01:06;;;;;;;1.00;1.00;;;11.60;99.90;;;;;;4970672;28;20205;-67
2021/05/29 00:03:32;;;;;;;0.70;0.70;;;11.60;99.90;;;;;;4971456;28;20220;-67
2021/05/29 00:05:59;;;;;;;0.70;0.70;;;11.60;99.90;;;;;;4972310;28;20283;-67
2021/05/29 00:08:26;;;;;;;0.70;0.70;;;11.70;99.90;;;;;;4971965;28;20696;-67
2021/05/29 00:10:56;;;;;;;1.00;0.90;;;11.70;99.90;;;;;;4971757;28;20236;-68
2021/05/29 00:13:25;;;;;;;1.00;0.90;;;11.70;99.90;;;;;;4971546;28;20548;-68
2021/05/29 00:15:51;;;;;;;0.83;0.83;;;11.80;99.90;;;;;;4970791;28;20201;-68
2021/05/29 00:18:19;;;;;;;0.87;0.87;;;11.80;99.90;;;;;;4972036;28;20289;-68
2021/05/29 00:20:46;;;;;;;0.73;0.73;;;11.80;99.90;;;;;;4972095;28;20251;-67
2021/05/29 00:23:13;;;;;;;1.00;0.83;;;11.80;99.90;;;;;;4969524;28;20224;-68
2021/05/29 00:25:41;;;;;;;0.90;0.90;;;11.80;99.90;;;;;;4972285;28;20283;-68
2021/05/29 00:28:09;;;;;;;1.00;0.93;;;11.80;99.90;;;;;;4971784;28;20317;-67
2021/05/29 00:30:37;;;;;;;1.00;1.00;;;11.80;99.90;;;;;;4970039;28;20201;-67
2021/05/29 00:33:05;;;;;;;0.90;0.80;;;11.80;99.90;;;;;;4971658;28;20201;-67
2021/05/29 00:35:32;;;;;;;0.80;0.80;;;11.90;99.90;;;;;;4971279;28;20195;-66
2021/05/29 00:37:59;;;;;;;0.80;0.80;;;11.90;99.90;;;;;;4971971;28;20613;-67
2021/05/29 00:40:25;;;;;;;0.80;0.80;;;11.90;99.90;;;;;;4971424;28;20295;-67
2021/05/29 00:42:52;;;;;;;2.23;0.90;;;11.90;99.90;;;;;;4969282;28;20605;-67
2021/05/29 00:45:19;;;;;;;1.27;1.00;;;11.90;99.90;;;;;;4969259;28;20523;-67
2021/05/29 00:47:46;;;;;;;1.93;0.90;;;11.90;99.90;;;;;;4971706;28;20207;-67
2021/05/29 00:50:14;;;;;;;0.80;0.80;;;12.00;99.90;;;;;;4984850;28;20299;-67
2021/05/29 00:52:41;;;;;;;0.77;0.77;;;12.00;99.90;;;;;;4971344;28;20258;-68
2021/05/29 00:55:10;;;;;;;0.87;0.87;;;12.00;99.90;;;;;;4970768;28;20631;-68
2021/05/29 00:57:39;;;;;;;1.23;1.00;;;12.00;99.90;;;;;;4971746;28;20614;-67
2021/05/29 01:00:08;;;;;;;1.13;0.63;;;12.00;99.90;;;;;;4968499;28;20220;-68
2021/05/29 01:02:35;;;;;;;1.27;0.83;;;12.10;99.90;;;;;;4970190;28;20210;-68
2021/05/29 01:05:02;;;;;;;0.80;0.80;;;12.10;99.90;;;;;;4967189;28;20211;-68
2021/05/29 01:07:29;;;;;;;1.93;0.90;;;12.10;99.90;;;;;;4971409;28;20287;-68
2021/05/29 01:09:56;;;;;;;0.90;0.90;;;12.10;99.90;;;;;;4970343;28;20272;-68
2021/05/29 01:12:23;;;;;;;0.80;0.80;;;12.20;99.90;;;;;;4971579;28;20289;-67
2021/05/29 01:14:53;;;;;;;3.83;1.13;;;12.10;99.90;;;;;;4967984;28;20206;-67
2021/05/29 01:17:20;;;;;;;1.07;1.00;;;12.10;99.90;;;;;;4971619;28;20199;-67
2021/05/29 01:19:46;;;;;;;0.77;0.77;;;12.20;99.90;;;;;;4970177;28;20236;-67
2021/05/29 01:22:14;;;;;;;1.10;1.10;;;12.20;99.90;;;;;;4970772;28;20813;-68
2021/05/29 01:24:41;;;;;;;0.90;0.90;;;12.20;99.90;;;;;;4969512;28;20288;-67
2021/05/29 01:27:08;;;;;;;0.83;0.83;;;12.20;99.90;;;;;;4971007;28;20354;-68
2021/05/29 01:29:35;;;;;;;0.93;0.93;;;12.20;99.90;;;;;;4968921;28;20205;-68
2021/05/29 01:32:05;;;;;;;1.10;1.00;;;12.20;99.90;;;;;;4968545;28;20211;-68
2021/05/29 01:34:35;;;;;;;0.90;0.90;;;12.20;99.90;;;;;;4968995;28;20290;-68
2021/05/29 01:37:02;;;;;;;0.93;0.93;;;12.20;99.90;;;;;;4970983;28;20271;-68
2021/05/29 01:39:31;;;;;;;1.20;1.10;;;12.30;99.90;;;;;;4967481;28;20677;-68
2021/05/29 01:41:58;;;;;;;1.07;0.97;;;12.30;99.90;;;;;;4970579;28;20693;-67
2021/05/29 01:44:25;;;;;;;0.90;0.90;;;12.30;99.90;;;;;;4966447;28;20197;-68
2021/05/29 01:46:53;;;;;;;1.10;0.87;;;12.30;99.90;;;;;;4966904;28;20208;-68
2021/05/29 01:49:20;;;;;;;1.20;1.10;;;12.30;99.90;;;;;;4969769;28;20284;-68
2021/05/29 01:51:46;;;;;;;1.60;1.40;;;12.30;99.90;;;;;;4970249;28;20296;-68
2021/05/29 01:54:14;;;;;;;1.10;1.10;;;12.30;99.90;;;;;;4969579;28;20307;-68
2021/05/29 01:56:42;;;;;;;1.40;1.07;;;12.30;99.90;;;;;;4969098;28;20647;-67
2021/05/29 01:59:09;;;;;;;1.50;1.30;;;12.20;99.90;;;;;;4966562;28;20304;-67
2021/05/29 02:01:35;;;;;;;1.67;1.57;;;12.30;99.90;;;;;;4969167;28;20213;-68
2021/05/29 02:04:03;;;;;;;1.20;1.20;;;12.30;99.90;;;;;;4968988;28;20212;-68
2021/05/29 02:06:29;;;;;;;2.53;1.13;;;12.30;99.90;;;;;;4970029;28;20270;-67
2021/05/29 02:08:56;;;;;;;1.27;1.17;;;12.30;99.90;;;;;;4969702;28;20284;-67
2021/05/29 02:11:22;;;;;;;1.23;1.13;;;12.30;99.90;;;;;;4970064;28;20686;-67
2021/05/29 02:13:50;;;;;;;1.30;1.20;;;12.30;99.90;;;;;;4967203;28;20346;-68
2021/05/29 02:16:16;;;;;;;1.47;1.37;;;12.30;99.90;;;;;;4962937;28;20211;-68
2021/05/29 02:18:43;;;;;;;0.87;0.87;;;12.30;99.90;;;;;;4969759;28;20212;-67
2021/05/29 02:21:11;;;;;;;0.90;0.90;;;12.30;99.90;;;;;;4968641;28;20212;-68
2021/05/29 02:23:40;;;;;;;1.93;1.27;;;12.40;99.90;;;;;;4969113;28;20304;-68
2021/05/29 02:26:11;;;;;;;1.10;1.00;;;12.30;99.90;;;;;;4969693;28;20243;-68
2021/05/29 02:28:38;;;;;;;1.10;1.10;;;12.40;99.90;;;;;;4968465;28;20285;-68
2021/05/29 02:31:06;;;;;;;1.10;1.00;;;12.40;99.90;;;;;;4968011;28;20682;-68
2021/05/29 02:33:33;;;;;;;1.30;1.20;;;12.40;99.90;;;;;;4969587;28;20208;-69
2021/05/29 02:36:01;;;;;;;1.37;0.97;;;12.40;99.90;;;;;;4969304;28;20562;-68
2021/05/29 02:38:28;;;;;;;2.23;1.03;;;12.40;99.90;;;;;;4970629;28;20201;-68
2021/05/29 02:40:56;;;;;;;1.40;1.00;;;12.40;99.90;;;;;;4969652;28;20676;-68
2021/05/29 02:43:22;;;;;;;1.57;1.37;;;12.40;99.90;;;;;;4967871;28;20722;-68
2021/05/29 02:45:49;;;;;;;1.37;1.27;;;12.40;99.90;;;;;;4967380;28;20214;-68
2021/05/29 02:48:17;;;;;;;1.10;1.00;;;12.40;99.90;;;;;;4969708;28;20207;-67
2021/05/29 02:50:44;;;;;;;1.40;1.30;;;12.40;99.90;;;;;;4969641;28;20205;-68
2021/05/29 02:53:13;;;;;;;1.03;0.93;;;12.50;99.90;;;;;;4968779;28;20284;-69
2021/05/29 02:55:40;;;;;;;1.13;1.07;;;12.40;99.90;;;;;;4969032;28;20200;-67
2021/05/29 02:58:07;;;;;;;1.20;1.10;;;12.50;99.90;;;;;;4969343;28;20689;-67
2021/05/29 03:00:36;;;;;;;2.57;1.30;;;12.50;99.90;;;;;;4967744;28;20287;-70
2021/05/29 03:03:04;;;;;;;1.60;1.50;;;12.50;99.90;;;;;;4968693;28;20223;-68
2021/05/29 03:05:31;;;;;;;1.17;1.10;;;12.50;99.90;;;;;;4966919;28;20202;-68
2021/05/29 03:07:58;;;;;;;2.43;1.30;;;12.50;99.90;;;;;;4969628;28;20239;-68
2021/05/29 03:10:25;;;;;;;1.37;1.27;;;12.50;99.90;;;;;;4966386;28;20233;-69
2021/05/29 03:12:52;;;;;;;1.37;1.27;;;12.50;99.90;;;;;;4967604;28;20309;-68
2021/05/29 03:15:23;;;;;;;1.27;1.17;;;12.60;99.90;;;;;;4961799;28;20200;-69
2021/05/29 03:17:50;;;;;;;1.03;1.00;;;12.60;99.90;;;;;;4967959;28;20215;-69
2021/05/29 03:20:20;;;;;;;1.03;1.03;;;12.60;99.90;;;;;;4968839;28;20201;-68
2021/05/29 03:22:47;;;;;;;1.20;1.10;;;12.60;99.90;;;;;;4969179;28;20227;-70
2021/05/29 03:25:15;;;;;;;1.40;1.30;;;12.60;99.90;;;;;;4968339;28;20288;-67
2021/05/29 03:27:43;;;;;;;1.33;1.23;;;12.60;99.90;;;;;;4969580;28;20629;-67
2021/05/29 03:30:12;;;;;;;1.30;1.20;;;12.60;99.90;;;;;;4966710;28;20215;-68
2021/05/29 03:32:39;;;;;;;1.37;1.30;;;12.70;99.90;;;;;;4968910;28;20204;-67
2021/05/29 03:35:07;;;;;;;1.30;1.10;;;12.60;99.90;;;;;;4968047;28;20220;-67
2021/05/29 03:37:33;;;;;;;1.30;1.20;;;12.70;99.90;;;;;;4969199;28;20234;-68
2021/05/29 03:40:01;;;;;;;1.60;1.37;;;12.60;99.90;;;;;;4968630;28;20289;-69
2021/05/29 03:42:27;;;;;;;1.30;1.20;;;12.60;99.90;;;;;;4969676;28;20401;-68
2021/05/29 03:44:54;;;;;;;1.93;1.20;;;12.70;99.90;;;;;;4964899;28;20764;-69
2021/05/29 03:47:20;;;;;;;1.07;1.03;;;12.70;99.90;;;;;;4968631;28;20283;-67
2021/05/29 03:49:47;;;;;;;1.30;1.20;;;12.70;99.90;;;;;;4968748;28;20692;-67
2021/05/29 03:52:13;;;;;;;1.33;1.23;;;12.70;99.90;;;;;;4969565;28;20366;-68
2021/05/29 03:54:40;;;;;;;1.00;1.00;;;12.70;99.90;;;;;;4967957;28;20196;-67
2021/05/29 03:57:07;;;;;;;1.20;1.10;;;12.60;99.90;;;;;;4969691;28;20200;-67
2021/05/29 03:59:34;;;;;;;1.30;1.20;;;12.60;99.90;;;;;;4968524;28;20575;-67
2021/05/29 04:02:00;;;;;;;1.40;1.30;;;12.70;99.90;;;;;;4971231;28;20244;-67
2021/05/29 04:04:27;;;;;;;1.30;1.20;;;12.70;99.90;;;;;;4970291;28;20323;-67
2021/05/29 04:06:53;;;;;;;1.80;1.70;;;12.70;99.90;;;;;;4971937;28;20294;-67
2021/05/29 04:09:20;;;;;;;1.50;1.40;;;12.70;99.90;;;;;;4972191;28;20203;-67
2021/05/29 04:11:46;;;;;;;1.60;1.50;;;12.70;99.90;;;;;;4970798;28;20414;-67
2021/05/29 04:14:14;;;;;;;1.60;1.50;;;12.70;99.90;;;;;;4965378;28;20316;-67
2021/05/29 04:16:40;;;;;;;1.50;1.40;;;12.70;99.90;;;;;;4970471;28;20223;-67
2021/05/29 04:19:07;;;;;;;1.47;1.33;;;12.70;99.90;;;;;;4971695;28;20192;-68
2021/05/29 04:21:33;;;;;;;2.27;2.03;;;12.70;99.90;;;;;;4971004;28;20637;-67
2021/05/29 04:23:59;;;;;;;2.47;2.10;;;12.80;99.90;;;;;;4971563;28;20307;-68
2021/05/29 04:26:26;;;;;;;2.07;1.83;;;12.80;99.90;;;;;;4971595;28;20346;-68
2021/05/29 04:28:53;;;;;;;2.73;1.77;;;12.80;99.90;;;;;;4972173;28;20212;-68
2021/05/29 04:31:21;;;;;;;2.37;1.40;;;12.80;99.90;;;;;;4970625;28;20197;-68
2021/05/29 04:33:47;;;;;;;1.70;1.60;;;12.80;99.90;;;;;;4969722;28;20205;-67
2021/05/29 04:36:14;;;;;;;2.27;1.70;;;12.80;99.90;;;;;;4970949;28;20287;-69
2021/05/29 04:38:40;;;;;;;1.50;1.40;;;12.80;99.90;;;;;;4972084;28;20229;-67
2021/05/29 04:41:07;;;;;;;1.40;1.30;;;12.80;99.90;;;;;;4967992;28;20275;-67
2021/05/29 04:43:34;;;;;;;1.37;1.30;;;12.80;99.90;;;;;;4970895;28;20225;-68
2021/05/29 04:46:00;;;;;;;1.80;1.70;;;12.80;99.90;;;;;;4967949;28;20730;-67
2021/05/29 04:48:27;;;;;;;3.33;1.50;;;12.80;99.90;;;;;;4971518;28;20214;-67
2021/05/29 04:51:12;;;;;;;2.03;1.80;;;12.80;99.90;;;;;;4971544;28;20208;-67
2021/05/29 04:53:39;;;;;;;1.50;1.40;;;12.80;99.90;;;;;;4970033;28;20217;-67
2021/05/29 04:56:06;;;;;;;4.03;2.00;;;12.80;99.90;;;;;;4970540;28;20204;-67
2021/05/29 04:58:33;;;;;;;1.90;1.70;;;12.80;99.90;;;;;;4971193;28;20304;-68
2021/05/29 05:00:59;;;;;;;2.23;1.90;;;12.80;99.90;;;;;;4969383;28;20195;-68
2021/05/29 05:03:27;;;;;;;3.50;2.00;;;12.70;99.90;;;;;;4967279;28;20219;-68
2021/05/29 05:05:53;;;;;;;1.90;1.63;;;12.80;99.90;;;;;;4969524;28;20303;-68
2021/05/29 05:08:20;;;;;;;1.97;1.80;;;12.80;99.90;;;;;;4971044;28;20223;-68
2021/05/29 05:10:46;;;;;;;2.07;1.93;;;12.90;99.90;;;;;;4969408;28;20272;-69
2021/05/29 05:13:12;;;;;;;2.30;2.10;;;12.90;99.90;;;;;;4965771;28;20197;-68
2021/05/29 05:15:39;;;;;;;3.27;2.63;;;13.00;99.90;;;;;;4965363;28;20211;-67
2021/05/29 05:18:07;;;;;;;3.83;2.33;;;13.00;99.90;;;;;;4970992;28;20223;-67
2021/05/29 05:20:36;;;;;;;2.67;2.20;;;13.00;99.90;;;;;;4971237;28;20203;-68
2021/05/29 05:23:03;;;;;;;3.57;2.50;;;13.00;99.90;;;;;;4970930;28;20532;-68
2021/05/29 05:25:31;;;;;;;2.00;1.90;;;13.10;99.90;;;;;;4970283;28;20234;-68
2021/05/29 05:27:58;;;;;;;1.97;1.80;;;13.10;99.90;;;;;;4970059;28;20221;-67
2021/05/29 05:30:25;;;;;;;1.87;1.73;;;13.10;99.90;;;;;;4969108;28;20193;-67
2021/05/29 05:32:52;;;;;;;3.10;2.50;;;13.10;99.90;;;;;;4969321;28;20209;-67
2021/05/29 05:35:21;;;;;;;2.23;1.83;;;13.10;99.90;;;;;;4969909;28;20336;-68
2021/05/29 05:37:48;;;;;;;2.30;2.10;;;13.00;99.90;;;;;;4966927;28;20192;-67
2021/05/29 05:40:16;;;;;;;2.23;2.00;;;13.00;99.90;;;;;;4970502;28;20208;-68
2021/05/29 05:42:43;;;;;;;2.67;2.33;;;13.00;99.90;;;;;;4970776;28;20231;-67
2021/05/29 05:45:10;;;;;;;1.83;1.73;;;13.00;99.90;;;;;;4967581;28;20547;-67
2021/05/29 05:47:36;;;;;;;3.33;2.20;;;13.00;99.90;;;;;;4969902;28;20201;-68
2021/05/29 05:50:05;;;;;;;1.67;1.57;;;13.00;99.90;;;;;;4970434;28;20712;-68
2021/05/29 05:52:31;;;;;;;2.63;2.13;;;13.10;99.90;;;;;;4970385;28;20197;-68
2021/05/29 05:54:59;;;;;;;1.70;1.60;;;13.10;99.90;;;;;;4969355;28;20215;-68
2021/05/29 05:57:25;;;;;;;2.10;1.90;;;13.20;99.90;;;;;;4970484;28;20586;-68
2021/05/29 05:59:52;;;;;;;1.83;1.73;;;13.20;99.90;;;;;;4966412;28;20291;-68
2021/05/29 06:02:18;;;;;;;2.20;2.00;;;13.30;99.90;;;;;;4970827;28;20258;-68
2021/05/29 06:04:45;;;;;;;2.00;1.90;;;13.30;99.90;;;;;;4967714;28;20228;-68
2021/05/29 06:07:11;;;;;;;1.90;1.80;;;13.40;99.90;;;;;;4970038;28;20213;-68
2021/05/29 06:09:37;;;;;;;2.17;1.97;;;13.60;99.90;;;;;;4970041;28;20243;-67
2021/05/29 06:12:05;;;;;;;1.70;1.60;;;13.70;99.90;;;;;;4968812;28;20237;-68
2021/05/29 06:20:05;;;;;;;1.90;1.70;;;15.00;99.90;;;;;;4967774;28;20260;-67
2021/05/29 06:22:32;;;;;;;1.87;1.73;;;15.20;99.90;;;;;;4971158;28;20222;-67
2021/05/29 06:24:58;;;;;;;2.40;2.20;;;15.20;99.90;;;;;;4968291;28;20232;-68
2021/05/29 06:27:26;;;;;;;1.97;1.87;;;15.30;99.90;;;;;;4970551;28;20223;-68
2021/05/29 06:29:52;;;;;;;1.73;1.63;;;15.40;99.90;;;;;;4966801;28;20557;-68
2021/05/29 06:32:19;;;;;;;2.10;1.93;;;15.50;99.90;;;;;;4970054;28;20207;-68
2021/05/29 06:34:45;;;;;;;1.90;1.70;;;15.70;99.90;;;;;;4968875;28;20299;-67
2021/05/29 06:37:12;;;;;;;2.10;1.90;;;15.70;99.90;;;;;;4968253;28;20234;-68
2021/05/29 06:39:38;;;;;;;2.20;2.00;;;15.80;99.90;;;;;;4969697;28;20214;-67
2021/05/29 06:42:05;;;;;;;1.90;1.80;;;15.90;99.90;;;;;;4969951;28;20613;-68
2021/05/29 06:44:33;;;;;;;2.00;1.90;;;16.00;99.90;;;;;;4967339;28;20279;-68
2021/05/29 06:46:59;;;;;;;3.47;1.60;;;16.10;99.90;;;;;;4968635;28;20298;-68
2021/05/29 06:49:26;;;;;;;3.20;2.23;;;16.30;99.90;;;;;;4966875;28;20322;-68
2021/05/29 06:51:57;;;;;;;3.40;3.00;;;16.40;99.90;;;;;;4970101;28;20246;-67
2021/05/29 06:54:33;;;;;;;2.50;2.30;;;16.40;99.90;;;;;;4969308;28;20200;-68
2021/05/29 06:59:45;;;;;;;5.50;3.23;;;16.30;99.90;;;;;;4965308;28;20208;-68
2021/05/29 07:02:11;;;;;;;4.17;3.40;;;16.20;99.90;;;;;;4969956;28;20576;-68
2021/05/29 07:04:38;;;;;;;2.50;2.30;;;16.10;99.90;;;;;;4968628;28;20267;-69
2021/05/29 07:07:04;;;;;;;2.70;2.50;;;16.10;99.90;;;;;;4967715;28;20208;-69
2021/05/29 07:09:31;;;;;;;3.20;2.60;;;16.10;99.90;;;;;;4968933;28;20200;-67
2021/05/29 07:11:57;;;;;;;2.87;2.40;;;16.10;99.90;;;;;;4969380;28;20259;-67
2021/05/29 07:14:24;;;;;;;3.00;2.80;;;16.20;99.90;;;;;;4962403;28;20683;-68
2021/05/29 07:16:52;;;;;;;2.77;2.30;;;16.20;99.90;;;;;;4966899;28;20224;-67
2021/05/29 07:19:20;;;;;;;2.37;2.27;;;16.30;99.90;;;;;;4969073;28;20200;-68
2021/05/29 07:21:47;;;;;;;6.10;3.10;;;16.50;99.90;;;;;;4958518;28;20193;-69
2021/05/29 07:24:14;;;;;;;4.27;3.07;;;16.80;99.90;;;;;;4967456;28;20302;-68
2021/05/29 07:26:40;;;;;;;3.67;2.60;;;16.80;99.90;;;;;;4984029;28;20208;-67
2021/05/29 07:29:07;;;;;;;3.40;2.53;;;16.90;99.90;;;;;;4966644;28;20224;-67
2021/05/29 07:31:34;;;;;;;4.93;3.00;;;17.10;99.90;;;;;;4970083;28;20204;-67
2021/05/29 07:34:01;;;;;;;2.97;2.47;;;17.40;99.90;;;;;;4970780;28;20193;-67
2021/05/29 07:36:28;;;;;;;3.37;2.20;;;17.70;99.90;;;;;;4973726;28;20255;-68
2021/05/29 07:38:54;;;;;;;4.90;2.73;;;18.10;99.90;;;;;;4972192;28;20228;-67
2021/05/29 07:41:21;;;;;;;4.10;2.37;;;18.50;99.90;;;;;;4972995;28;20206;-67
2021/05/29 07:43:48;;;;;;;5.47;2.60;;;18.80;99.90;;;;;;4972415;28;20225;-68
2021/05/29 07:46:16;;;;;;;5.20;3.10;;;19.00;99.90;;;;;;4970622;28;20290;-68
2021/05/29 07:48:43;;;;;;;3.73;1.93;;;19.10;99.90;;;;;;4971616;28;20409;-67
2021/05/29 07:51:10;;;;;;;2.92;1.80;;;19.30;99.90;;;;;;4972586;28;20276;-68
2021/05/29 07:53:39;;;;;;;1.60;1.50;;;19.40;99.90;;;;;;4972594;28;20207;-68
2021/05/29 07:56:07;;;;;;;3.05;1.55;;;19.50;99.90;;;;;;4971885;28;20278;-68
2021/05/29 07:58:34;;;;;;;2.55;1.48;;;19.60;99.90;;;;;;4970156;28;20207;-68
2021/05/29 08:01:01;;;;;;;1.60;1.40;;;19.70;99.90;;;;;;4971069;28;20196;-68
2021/05/29 08:03:29;;;;;;;1.60;1.50;;;20.00;99.90;;;;;;4967862;28;20829;-68
2021/05/29 08:05:56;;;;;;;2.45;1.40;;;20.10;99.90;;;;;;4972128;28;20247;-69
2021/05/29 08:08:25;;;;;;;1.90;1.80;;;20.30;99.90;;;;;;4970867;28;20220;-69
2021/05/29 08:10:55;;;;;;;1.80;1.23;;;20.40;99.80;;;;;;4970632;28;20384;-69
2021/05/29 08:13:21;;;;;;;1.40;1.30;;;20.50;99.00;;;;;;4970974;28;20200;-67
2021/05/29 08:15:49;;;;;;;1.17;1.08;;;20.40;98.20;;;;;;4969025;28;20287;-68
2021/05/29 08:18:17;;;;;;;1.05;1.05;;;20.40;97.50;;;;;;4971684;28;20213;-68
2021/05/29 08:20:44;;;;;;;1.00;1.00;;;20.30;96.80;;;;;;4971813;28;20324;-69
2021/05/29 08:23:10;;;;;;;1.33;1.20;;;20.30;97.30;;;;;;4967002;28;20224;-68
2021/05/29 08:25:38;;;;;;;1.48;1.20;;;20.20;97.00;;;;;;4970549;28;20196;-69
2021/05/29 08:28:05;;;;;;;1.25;1.25;;;20.20;96.40;;;;;;4969879;28;20308;-66
2021/05/29 08:30:32;;;;;;;1.02;1.02;;;20.20;96.10;;;;;;4969845;28;20268;-70
2021/05/29 08:32:59;;;;;;;1.25;1.20;;;20.20;96.30;;;;;;4969676;28;20685;-67
2021/05/29 08:35:26;;;;;;;2.15;1.00;;;20.40;96.40;;;;;;4965428;28;20815;-68
2021/05/29 08:37:52;;;;;;;1.00;0.90;;;20.50;95.80;;;;;;4964853;28;20205;-67
2021/05/29 08:40:20;;;;;;;1.00;1.00;;;20.70;95.80;;;;;;4968462;28;20197;-68
2021/05/29 08:42:48;;;;;;;3.30;1.05;;;20.80;93.80;;;;;;4961547;28;20284;-68
2021/05/29 08:45:17;;;;;;;2.65;1.10;;;20.80;93.10;;;;;;4963462;28;20215;-68
2021/05/29 08:47:45;;;;;;;1.27;1.27;;;20.80;93.40;;;;;;4963888;28;20765;-67
2021/05/29 08:50:12;;;;;;;1.58;1.38;;;20.90;92.70;;;;;;4960156;28;21191;-69
2021/05/29 08:52:39;;;;;;;2.25;1.58;;;21.00;91.50;;;;;;4966661;28;20196;-68
2021/05/29 08:55:08;;;;;;;1.80;1.70;;;21.00;91.30;;;;;;4966686;28;20228;-68
2021/05/29 08:57:35;;;;;;;1.35;1.25;;;21.20;91.00;;;;;;4968577;28;20797;-68
2021/05/29 09:00:04;;;;;;;0.90;0.90;;;21.20;89.80;;;;;;4965928;28;20250;-67
2021/05/29 09:02:31;;;;;;;1.23;1.10;;;21.40;87.50;;;;;;4968290;28;20280;-68
2021/05/29 09:05:06;;;;;;;1.00;1.00;;;21.60;85.40;;;;;;4967787;28;20224;-67
2021/05/29 09:07:32;;;;;;;0.70;0.70;;;21.70;83.60;;;;;;4968229;28;20282;-69
2021/05/29 09:10:16;;;;;;;0.70;0.70;;;21.60;81.50;;;;;;4966861;28;20227;-67
2021/05/29 09:13:15;;;;;;;2.05;0.73;;;21.70;80.60;;;;;;4965812;28;20300;-68
2021/05/29 09:15:45;;;;;;;0.80;0.80;;;21.60;79.20;;;;;;4966085;28;20223;-68
2021/05/29 09:18:24;;;;;;;0.65;0.65;;;21.50;78.30;;;;;;4967360;28;20295;-69
2021/05/29 09:20:52;;;;;;;17.48;1.23;;;21.30;78.40;;;;;;4966075;28;20887;-68
2021/05/29 09:23:19;;;;;;;0.80;0.80;;;21.00;77.90;;;;;;4966991;28;20303;-67
2021/05/29 09:25:53;;;;;;;0.70;0.70;;;20.60;77.30;;;;;;4968075;28;20228;-67
2021/05/29 09:28:23;;;;;;;1.67;0.75;;;20.30;77.70;;;;;;4967816;28;20195;-67
2021/05/29 09:30:53;;;;;;;0.80;0.80;;;20.30;77.60;;;;;;4966307;28;20275;-68
2021/05/29 09:33:21;;;;;;;1.83;1.50;;;20.30;78.30;;;;;;4965712;28;20652;-67
2021/05/29 09:35:55;;;;;;;0.80;0.80;;;20.30;76.70;;;;;;4961106;28;20303;-69
2021/05/29 09:38:22;;;;;;;1.00;0.60;;;20.10;76.30;;;;;;4961582;28;20204;-69
2021/05/29 09:40:51;;;;;;;0.73;0.73;;;20.10;75.60;;;;;;4967981;28;20228;-69
2021/05/29 09:43:17;;;;;;;0.70;0.70;;;20.10;75.80;;;;;;4965748;28;20452;-70
2021/05/29 09:45:44;;;;;;;1.10;1.10;;;20.20;76.40;;;;;;4968838;28;20243;-69
2021/05/29 09:48:17;;;;;;;0.90;0.90;;;20.50;76.10;;;;;;4967580;28;20209;-69
2021/05/29 09:51:01;;;;;;;0.80;0.80;;;20.60;74.30;;;;;;4968912;28;20224;-67
2021/05/29 09:53:28;;;;;;;0.95;0.63;;;20.70;74.90;;;;;;4968933;28;20666;-68
2021/05/29 09:55:55;;;;;;;2.47;0.93;;;20.90;74.10;;;;;;4969589;28;20625;-68
2021/05/29 09:58:22;;;;;;;0.77;0.73;;;20.90;73.80;;;;;;4969895;28;20204;-68
2021/05/29 10:00:50;;;;;;;0.88;0.88;;;21.10;72.50;;;;;;4963674;28;20203;-68
2021/05/29 10:03:18;;;;;;;1.33;0.70;;;21.20;72.50;;;;;;4969476;28;20213;-68
2021/05/29 10:05:48;;;;;;;0.90;0.90;;;21.70;72.80;;;;;;4970914;28;20287;-68
2021/05/29 10:08:17;;;;;;;2.38;0.73;;;22.20;72.80;;;;;;4969950;28;20678;-68
2021/05/29 10:10:43;;;;;;;0.70;0.70;;;22.60;69.30;;;;;;4969973;28;20239;-67
2021/05/29 10:13:10;;;;;;;1.00;0.90;;;22.70;67.20;;;;;;4968948;28;20275;-68
2021/05/29 10:15:36;;;;;;;0.68;0.60;;;22.70;65.40;;;;;;4960396;28;20279;-68
2021/05/29 10:18:05;;;;;;;2.55;0.90;;;22.50;65.00;;;;;;4968753;28;20753;-68
2021/05/29 10:20:35;;;;;;;1.27;0.82;;;22.60;66.70;;;;;;4960670;28;20192;-68
2021/05/29 10:23:05;;;;;;;0.82;0.82;;;22.60;67.10;;;;;;4969656;28;20670;-68
2021/05/29 10:25:32;;;;;;;0.80;0.80;;;22.60;67.70;;;;;;4968679;28;20720;-68
2021/05/29 10:27:58;;;;;;;0.98;0.98;;;22.80;67.60;;;;;;4969606;28;20196;-68
2021/05/29 10:30:26;;;;;;;1.60;1.00;;;22.60;65.80;;;;;;4968397;28;20235;-68
2021/05/29 10:33:15;;;;;;;3.45;0.90;;;22.20;66.50;;;;;;4968083;28;20296;-68
2021/05/29 10:35:43;;;;;;;0.90;0.90;;;21.80;67.40;;;;;;4969674;28;20645;-69
2021/05/29 10:38:10;;;;;;;1.13;1.05;;;21.60;68.50;;;;;;4970016;28;20211;-68
2021/05/29 10:40:39;;;;;;;0.80;0.80;;;21.50;69.80;;;;;;4969567;28;20236;-68
2021/05/29 10:43:10;;;;;;;2.47;0.85;;;21.40;70.40;;;;;;4960794;28;20204;-68
2021/05/29 10:45:38;;;;;;;1.10;1.00;;;21.30;69.80;;;;;;4962438;28;20219;-68
2021/05/29 10:48:07;;;;;;;0.70;0.70;;;21.20;70.40;;;;;;4964872;28;20232;-68
2021/05/29 10:50:55;;;;;;;0.50;0.50;;;21.10;70.00;;;;;;4963946;28;20559;-68
2021/05/29 10:53:43;;;;;;;0.75;0.75;;;20.80;69.20;;;;;;4965986;28;20389;-68
2021/05/29 10:56:31;;;;;;;0.70;0.70;;;20.60;70.10;;;;;;4907960;29;20210;-68
2021/05/29 10:59:00;;;;;;;0.77;0.50;;;20.40;69.80;;;;;;4887184;29;20210;-68
2021/05/29 11:02:04;;;;;;;0.50;0.50;;;20.20;70.60;;;;;;4905708;29;20246;-68
2021/05/29 11:04:31;;;;;;;0.68;0.68;;;20.00;71.10;;;;;;4902356;29;20305;-68
2021/05/29 11:07:02;;;;;;;2.15;0.50;;;19.80;71.90;;;;;;4910318;29;20245;-68
2021/05/29 11:09:47;;;;;;;0.50;0.50;;;19.70;71.50;;;;;;4911690;29;20700;-68
2021/05/29 11:12:14;;;;;;;0.65;0.60;;;19.60;71.40;;;;;;4914966;29;20683;-69
2021/05/29 11:14:55;;;;;;;1.20;0.82;;;19.50;71.10;;;;;;4909390;29;20214;-67
2021/05/29 11:17:23;;;;;;;0.70;0.43;;;19.70;71.90;;;;;;4913980;29;20198;-69
2021/05/29 11:20:09;;;;;;;4.72;0.63;;;19.80;70.40;;;;;;4911358;29;20274;-67
2021/05/29 11:22:45;;;;;;;0.40;0.40;;;19.90;69.90;;;;;;4912996;29;20214;-67
2021/05/29 11:25:15;;;;;;;0.60;0.60;;;20.00;70.30;;;;;;4908670;29;20322;-69
2021/05/29 11:27:43;;;;;;;0.60;0.60;;;20.00;70.40;;;;;;4908624;29;20525;-67
2021/05/29 11:30:12;;;;;;;0.57;0.50;;;20.00;69.90;;;;;;4910095;29;20934;-68
2021/05/29 11:32:43;;;;;;;0.60;0.60;;;20.00;70.30;;;;;;4921335;28;20204;-68
2021/05/29 11:35:35;;;;;;;0.30;0.30;;;20.00;69.60;;;;;;4974599;28;20255;-67
2021/05/29 11:38:06;;;;;;;1.00;0.60;;;20.00;69.60;;;;;;4972790;28;20219;-68
2021/05/29 11:40:54;;;;;;;0.60;0.60;;;20.20;69.20;;;;;;4975013;28;20698;-68
2021/05/29 11:43:32;;;;;;;0.40;0.40;;;20.50;68.40;;;;;;4980683;28;20228;-68
2021/05/29 11:46:00;;;;;;;0.68;0.43;;;20.80;66.40;;;;;;4973332;28;20204;-68
2021/05/29 11:48:35;;;;;;;0.40;0.40;;;20.80;65.80;;;;;;4975516;28;20196;-68
2021/05/29 11:51:10;;;;;;;0.40;0.40;;;20.80;65.90;;;;;;4971326;28;20330;-67
2021/05/29 11:53:38;;;;;;;0.30;0.30;;;20.80;66.00;;;;;;4974617;28;20654;-67
2021/05/29 11:56:06;;;;;;;0.90;0.50;;;20.80;65.60;;;;;;4975088;28;20279;-68
2021/05/29 11:58:47;;;;;;;0.50;0.50;;;20.80;65.70;;;;;;4975348;28;20776;-68
2021/05/29 12:01:15;;;;;;;0.50;0.50;;;20.90;66.50;;;;;;4973715;28;20683;-68
2021/05/29 12:03:45;;;;;;;0.45;0.45;;;20.90;67.70;;;;;;4973765;28;20212;-67
2021/05/29 12:06:12;;;;;;;1.85;0.50;;;21.00;67.00;;;;;;4975111;28;20197;-68
2021/05/29 12:08:57;;;;;;;0.50;0.50;;;21.10;67.30;;;;;;4975547;28;20200;-68
2021/05/29 12:11:27;;;;;;;0.40;0.40;;;21.30;66.60;;;;;;4975384;28;20621;-68
2021/05/29 12:13:58;;;;;;;2.22;0.50;;;21.40;67.50;;;;;;4972637;28;20321;-68
2021/05/29 12:16:27;;;;;;;0.40;0.40;;;21.50;66.80;;;;;;4974439;28;20288;-68
2021/05/29 12:18:53;;;;;;;0.50;0.50;;;21.50;65.70;;;;;;4971880;28;20232;-68
2021/05/29 12:21:20;;;;;;;0.50;0.50;;;21.30;64.50;;;;;;4972006;28;20216;-67
2021/05/29 12:23:55;;;;;;;0.50;0.50;;;21.00;64.00;;;;;;4971773;28;20730;-67
2021/05/29 12:26:24;;;;;;;0.50;0.50;;;20.80;64.70;;;;;;4961640;28;20206;-67
2021/05/29 12:28:51;;;;;;;0.40;0.40;;;20.70;65.30;;;;;;4971803;28;20284;-68
2021/05/29 12:31:19;;;;;;;1.85;0.57;;;20.50;66.10;;;;;;4970347;28;20689;-67
2021/05/29 12:33:45;;;;;;;0.88;0.40;;;20.50;67.40;;;;;;4972305;28;20185;-67
2021/05/29 12:36:14;;;;;;;1.08;0.70;;;20.30;67.80;;;;;;4971705;28;20279;-68
2021/05/29 12:39:03;;;;;;;0.40;0.40;;;20.20;68.80;;;;;;4972360;28;20230;-67
2021/05/29 12:41:37;;;;;;;1.05;0.38;;;19.90;69.70;;;;;;4911099;29;20351;-68
2021/05/29 12:44:06;;;;;;;0.50;0.50;;;19.70;71.00;;;;;;4909638;29;20372;-68
2021/05/29 12:46:33;;;;;;;1.17;0.45;;;19.50;72.20;;;;;;4911585;29;20758;-67
2021/05/29 12:49:08;;;;;;;2.25;0.88;;;19.30;73.50;;;;;;4911241;29;20676;-68
2021/05/29 12:51:42;;;;;;;0.52;0.52;;;19.20;73.70;;;;;;4904072;29;20277;-67
2021/05/29 12:54:10;;;;;;;2.92;0.80;;;19.10;73.60;;;;;;4911215;29;20518;-68
2021/05/29 12:56:48;;;;;;;0.57;0.57;;;19.00;74.20;;;;;;4911283;29;20760;-68
2021/05/29 12:59:18;;;;;;;0.50;0.50;;;18.80;74.20;;;;;;4909754;29;20214;-66
2021/05/29 13:02:00;;;;;;;0.60;0.60;;;18.60;75.30;;;;;;4905563;29;20673;-67
2021/05/29 13:07:28;;;;;;;0.60;0.60;;;18.30;78.70;;;;;;4911117;29;20246;-68